Time;durP1;ratioP1;P1;durP2;ratioP2;P2;SDS_P1;SDS_P2;PMS_P1;PMS_P2;Temp;Humidity;BMP_temperature;BMP_pressure;BME280_temperature;BME280_humidity;BME280_pressure;Samples;Min_cycle;Max_cycle;Signal;HPM_P1;HPM_P2
2022/12/04 00:01:08;;;;;;;;;;;21.20;38.20;;;;;;464733;256;1350;-43
2022/12/04 00:03:09;;;;;;;;;;;21.20;38.20;;;;;;464682;256;1358;-44
2022/12/04 00:05:10;;;;;;;;;;;21.20;38.20;;;;;;464783;256;1293;-43
2022/12/04 00:07:12;;;;;;;;;;;21.20;38.10;;;;;;465024;256;1248;-43
2022/12/04 00:09:13;;;;;;;;;;;21.20;38.10;;;;;;464806;256;1211;-44
2022/12/04 00:11:14;;;;;;;;;;;21.20;38.20;;;;;;464819;256;1302;-43
2022/12/04 00:13:16;;;;;;;;;;;21.20;38.10;;;;;;464898;256;2213;-44
2022/12/04 00:15:17;;;;;;;;;;;21.20;38.20;;;;;;464709;256;1372;-44
2022/12/04 00:17:18;;;;;;;;;;;21.20;38.20;;;;;;464771;256;1390;-44
2022/12/04 00:19:20;;;;;;;;;;;21.20;38.10;;;;;;464927;256;1376;-44
2022/12/04 00:21:21;;;;;;;;;;;21.20;38.10;;;;;;465069;256;1632;-44
2022/12/04 00:23:22;;;;;;;;;;;21.20;38.10;;;;;;464693;256;1326;-44
2022/12/04 00:25:24;;;;;;;;;;;21.20;38.20;;;;;;464688;256;1358;-44
2022/12/04 00:27:25;;;;;;;;;;;21.20;38.20;;;;;;465048;256;1280;-44
2022/12/04 00:29:26;;;;;;;;;;;21.20;38.20;;;;;;464697;256;1191;-44
2022/12/04 00:31:28;;;;;;;;;;;21.10;38.20;;;;;;464661;256;1728;-45
2022/12/04 00:33:29;;;;;;;;;;;21.10;38.20;;;;;;465046;256;2123;-44
2022/12/04 00:35:30;;;;;;;;;;;21.10;38.30;;;;;;464796;256;1452;-44
2022/12/04 00:37:32;;;;;;;;;;;21.10;38.20;;;;;;465137;256;1212;-43
2022/12/04 00:39:33;;;;;;;;;;;21.10;38.20;;;;;;464742;256;1341;-44
2022/12/04 00:41:34;;;;;;;;;;;21.10;38.20;;;;;;465173;256;1081;-43
2022/12/04 00:43:36;;;;;;;;;;;21.10;38.20;;;;;;465180;256;1214;-44
2022/12/04 00:45:37;;;;;;;;;;;21.10;38.10;;;;;;464715;256;1760;-44
2022/12/04 00:47:38;;;;;;;;;;;21.20;38.20;;;;;;464690;256;1398;-44
2022/12/04 00:49:40;;;;;;;;;;;21.20;38.20;;;;;;464733;256;1328;-43
2022/12/04 00:51:41;;;;;;;;;;;21.20;38.10;;;;;;464800;256;1257;-44
2022/12/04 00:53:42;;;;;;;;;;;21.20;38.10;;;;;;464671;256;2219;-44
2022/12/04 00:55:44;;;;;;;;;;;21.20;38.20;;;;;;465028;256;1426;-43
2022/12/04 00:57:45;;;;;;;;;;;21.10;38.10;;;;;;465083;256;1712;-43
2022/12/04 00:59:46;;;;;;;;;;;21.10;38.20;;;;;;464715;256;1267;-43
2022/12/04 01:01:48;;;;;;;;;;;21.10;38.20;;;;;;464910;256;1205;-43
2022/12/04 01:03:49;;;;;;;;;;;21.10;38.20;;;;;;465085;256;1242;-44
2022/12/04 01:05:50;;;;;;;;;;;21.10;38.20;;;;;;464712;256;1375;-43
2022/12/04 01:07:52;;;;;;;;;;;21.10;38.30;;;;;;464932;256;1261;-43
2022/12/04 01:09:53;;;;;;;;;;;21.10;38.30;;;;;;465182;256;1240;-43
2022/12/04 01:11:54;;;;;;;;;;;21.10;38.30;;;;;;465028;256;1216;-43
2022/12/04 01:13:56;;;;;;;;;;;21.10;38.20;;;;;;464782;256;1189;-43
2022/12/04 01:15:57;;;;;;;;;;;21.10;38.20;;;;;;465069;256;1274;-43
2022/12/04 01:17:58;;;;;;;;;;;21.10;38.10;;;;;;465145;256;1282;-43
2022/12/04 01:20:00;;;;;;;;;;;21.10;38.10;;;;;;464710;256;1209;-44
2022/12/04 01:22:02;;;;;;;;;;;21.10;38.20;;;;;;464996;256;1245;-43
2022/12/04 01:24:02;;;;;;;;;;;21.10;38.30;;;;;;464954;256;1980;-44
2022/12/04 01:26:03;;;;;;;;;;;21.10;38.20;;;;;;465094;256;1277;-44
2022/12/04 01:28:05;;;;;;;;;;;21.10;38.20;;;;;;465104;256;1250;-43
2022/12/04 01:30:06;;;;;;;;;;;21.10;38.20;;;;;;465127;256;1224;-44
2022/12/04 01:32:07;;;;;;;;;;;21.10;38.20;;;;;;464736;256;2194;-44
2022/12/04 01:34:09;;;;;;;;;;;21.10;38.20;;;;;;465030;256;1376;-44
2022/12/04 01:36:10;;;;;;;;;;;21.10;38.20;;;;;;464630;256;1532;-43
2022/12/04 01:38:12;;;;;;;;;;;21.10;38.20;;;;;;464930;256;1309;-44
2022/12/04 01:40:13;;;;;;;;;;;21.10;38.20;;;;;;464975;256;1359;-44
2022/12/04 01:42:14;;;;;;;;;;;21.10;38.20;;;;;;464475;256;1241;-44
2022/12/04 01:44:16;;;;;;;;;;;21.10;38.20;;;;;;465116;256;1424;-43
2022/12/04 01:46:17;;;;;;;;;;;21.10;38.20;;;;;;464525;256;1362;-44
2022/12/04 01:48:18;;;;;;;;;;;21.10;38.20;;;;;;465014;256;1250;-44
2022/12/04 01:50:20;;;;;;;;;;;21.10;38.20;;;;;;464660;256;1554;-44
2022/12/04 01:52:21;;;;;;;;;;;21.10;38.20;;;;;;464510;256;2159;-44
2022/12/04 01:54:27;;;;;;;;;;;21.10;38.20;;;;;;464710;256;1500;-44
2022/12/04 01:56:24;;;;;;;;;;;21.00;38.20;;;;;;464480;257;2654;-43
2022/12/04 01:58:25;;;;;;;;;;;21.00;38.20;;;;;;464959;256;1466;-43
2022/12/04 02:00:26;;;;;;;;;;;21.10;38.30;;;;;;464771;256;1706;-43
2022/12/04 02:02:28;;;;;;;;;;;21.00;38.20;;;;;;464704;256;1385;-44
2022/12/04 02:04:29;;;;;;;;;;;21.00;38.20;;;;;;464867;256;1423;-43
2022/12/04 02:06:30;;;;;;;;;;;21.10;38.20;;;;;;464661;256;1276;-43
2022/12/04 02:08:32;;;;;;;;;;;21.10;38.20;;;;;;464643;256;1592;-44
2022/12/04 02:10:33;;;;;;;;;;;21.10;38.20;;;;;;464701;256;1578;-44
2022/12/04 02:12:34;;;;;;;;;;;21.10;38.10;;;;;;464664;256;2206;-44
2022/12/04 02:14:36;;;;;;;;;;;21.00;38.20;;;;;;464675;256;1414;-44
2022/12/04 02:16:37;;;;;;;;;;;21.00;38.30;;;;;;464488;257;1375;-44
2022/12/04 02:18:38;;;;;;;;;;;21.10;38.30;;;;;;464645;256;1846;-44
2022/12/04 02:20:40;;;;;;;;;;;21.20;38.10;;;;;;464899;256;1288;-43
2022/12/04 02:22:41;;;;;;;;;;;21.40;37.70;;;;;;464527;256;1806;-44
2022/12/04 02:24:42;;;;;;;;;;;21.50;37.40;;;;;;464741;256;1491;-44
2022/12/04 02:26:44;;;;;;;;;;;21.70;37.20;;;;;;464557;256;1665;-44
2022/12/04 02:28:45;;;;;;;;;;;21.80;36.90;;;;;;464947;256;1317;-44
2022/12/04 02:30:46;;;;;;;;;;;22.00;36.80;;;;;;464612;256;1346;-44
2022/12/04 02:32:48;;;;;;;;;;;22.00;36.60;;;;;;464518;256;2251;-43
2022/12/04 02:34:49;;;;;;;;;;;22.10;36.40;;;;;;464788;256;1414;-44
2022/12/04 02:36:50;;;;;;;;;;;22.10;36.40;;;;;;464839;256;1358;-43
2022/12/04 02:38:52;;;;;;;;;;;22.20;36.30;;;;;;464690;256;1326;-44
2022/12/04 02:40:53;;;;;;;;;;;22.20;36.20;;;;;;465130;256;1309;-44
2022/12/04 02:42:54;;;;;;;;;;;22.30;36.20;;;;;;464745;256;1258;-44
2022/12/04 02:44:56;;;;;;;;;;;22.30;36.10;;;;;;464723;256;1226;-44
2022/12/04 02:46:57;;;;;;;;;;;22.30;36.00;;;;;;464943;256;1291;-44
2022/12/04 02:48:58;;;;;;;;;;;22.40;36.00;;;;;;464994;256;1265;-44
2022/12/04 02:51:00;;;;;;;;;;;22.40;35.90;;;;;;464793;256;1266;-44
2022/12/04 02:53:01;;;;;;;;;;;22.50;35.90;;;;;;465147;256;2174;-44
2022/12/04 02:55:03;;;;;;;;;;;22.50;35.80;;;;;;464769;256;1293;-44
2022/12/04 02:57:04;;;;;;;;;;;22.50;35.80;;;;;;464928;256;1270;-44
2022/12/04 02:59:05;;;;;;;;;;;22.50;35.80;;;;;;465143;256;1330;-44
2022/12/04 03:01:18;;;;;;;;;;;22.50;35.70;;;;;;464837;256;1486;-43
2022/12/04 03:03:09;;;;;;;;;;;22.60;35.70;;;;;;464267;256;1928;-44
2022/12/04 03:05:10;;;;;;;;;;;22.60;35.70;;;;;;465065;256;1259;-44
2022/12/04 03:07:12;;;;;;;;;;;22.60;35.60;;;;;;464897;256;1289;-44
2022/12/04 03:09:13;;;;;;;;;;;22.70;35.70;;;;;;464901;256;1250;-44
2022/12/04 03:11:15;;;;;;;;;;;22.60;35.60;;;;;;464727;256;1359;-44
2022/12/04 03:13:16;;;;;;;;;;;22.60;35.60;;;;;;464719;256;2209;-44
2022/12/04 03:15:17;;;;;;;;;;;22.70;35.60;;;;;;464716;256;1291;-44
2022/12/04 03:17:19;;;;;;;;;;;22.70;35.50;;;;;;464870;256;1359;-43
2022/12/04 03:19:20;;;;;;;;;;;22.70;35.50;;;;;;464722;256;1394;-44
2022/12/04 03:21:21;;;;;;;;;;;22.80;35.50;;;;;;464693;256;1334;-44
2022/12/04 03:23:23;;;;;;;;;;;22.80;35.50;;;;;;464705;256;1267;-44
2022/12/04 03:25:24;;;;;;;;;;;22.80;35.50;;;;;;465140;256;1208;-44
2022/12/04 03:27:25;;;;;;;;;;;22.80;35.40;;;;;;464700;256;1368;-44
2022/12/04 03:29:27;;;;;;;;;;;22.80;35.40;;;;;;464726;256;1368;-44
2022/12/04 03:31:28;;;;;;;;;;;22.80;35.30;;;;;;464681;256;1725;-44
2022/12/04 03:33:29;;;;;;;;;;;22.90;35.40;;;;;;464799;256;2166;-44
2022/12/04 03:35:30;;;;;;;;;;;22.80;35.30;;;;;;465086;256;1535;-44
2022/12/04 03:37:32;;;;;;;;;;;22.90;35.30;;;;;;464832;256;1280;-44
2022/12/04 03:39:33;;;;;;;;;;;22.90;35.30;;;;;;464942;256;1353;-44
2022/12/04 03:41:34;;;;;;;;;;;22.90;35.30;;;;;;465100;256;1788;-44
2022/12/04 03:43:36;;;;;;;;;;;22.90;35.30;;;;;;464944;256;1246;-43
2022/12/04 03:45:37;;;;;;;;;;;22.90;35.20;;;;;;464960;256;1267;-44
2022/12/04 03:47:38;;;;;;;;;;;22.90;35.20;;;;;;465092;256;1226;-43
2022/12/04 03:49:40;;;;;;;;;;;23.00;35.20;;;;;;465106;256;1245;-44
2022/12/04 03:51:41;;;;;;;;;;;23.00;35.20;;;;;;464723;256;1236;-44
2022/12/04 03:53:42;;;;;;;;;;;23.00;35.20;;;;;;464735;256;2187;-43
2022/12/04 03:55:44;;;;;;;;;;;23.00;35.20;;;;;;464879;256;1247;-43
2022/12/04 03:57:45;;;;;;;;;;;23.00;35.10;;;;;;465154;256;1165;-44
2022/12/04 03:59:46;;;;;;;;;;;23.00;35.10;;;;;;464769;256;1144;-44
2022/12/04 04:01:48;;;;;;;;;;;23.00;35.10;;;;;;465157;256;1137;-44
2022/12/04 04:03:49;;;;;;;;;;;23.10;35.10;;;;;;464772;256;1135;-44
2022/12/04 04:05:50;;;;;;;;;;;23.00;35.10;;;;;;464768;256;1100;-44
2022/12/04 04:07:52;;;;;;;;;;;23.00;35.10;;;;;;464944;256;1235;-44
2022/12/04 04:09:53;;;;;;;;;;;23.10;35.10;;;;;;465133;256;1266;-44
2022/12/04 04:11:54;;;;;;;;;;;23.10;35.10;;;;;;465023;256;1293;-44
2022/12/04 04:25:32;;;;;;;;;;;23.10;35.00;;;;;;464575;257;1304;-44
2022/12/04 04:27:33;;;;;;;;;;;23.20;35.00;;;;;;464762;256;1693;-44
2022/12/04 04:29:35;;;;;;;;;;;23.20;35.00;;;;;;464643;256;1240;-44
2022/12/04 04:31:36;;;;;;;;;;;23.20;35.00;;;;;;464613;256;1272;-43
2022/12/04 04:33:37;;;;;;;;;;;23.20;35.00;;;;;;465035;256;2150;-44
2022/12/04 04:35:39;;;;;;;;;;;23.20;35.00;;;;;;464921;256;1733;-43
2022/12/04 04:37:40;;;;;;;;;;;23.20;35.00;;;;;;464852;256;1383;-43
2022/12/04 04:39:41;;;;;;;;;;;23.20;35.00;;;;;;465055;256;1371;-44
2022/12/04 04:41:43;;;;;;;;;;;23.20;35.00;;;;;;465084;256;1346;-44
2022/12/04 04:43:44;;;;;;;;;;;23.20;34.90;;;;;;464739;256;1662;-44
2022/12/04 04:45:45;;;;;;;;;;;23.20;34.90;;;;;;464895;256;1258;-43
2022/12/04 04:47:46;;;;;;;;;;;23.30;34.90;;;;;;464699;256;1325;-44
2022/12/04 04:49:48;;;;;;;;;;;23.30;34.90;;;;;;464851;256;1295;-44
2022/12/04 04:51:49;;;;;;;;;;;23.30;34.90;;;;;;465020;256;1365;-43
2022/12/04 04:53:50;;;;;;;;;;;23.30;34.90;;;;;;464671;256;2171;-44
2022/12/04 04:55:52;;;;;;;;;;;23.30;34.90;;;;;;464937;256;2411;-43
2022/12/04 04:57:53;;;;;;;;;;;23.30;34.90;;;;;;464724;256;1344;-44
2022/12/04 04:59:54;;;;;;;;;;;23.30;34.90;;;;;;464917;256;1462;-44
2022/12/04 05:01:56;;;;;;;;;;;23.30;34.90;;;;;;464728;256;1554;-44
2022/12/04 05:03:57;;;;;;;;;;;23.30;34.80;;;;;;464805;256;1689;-43
2022/12/04 05:05:58;;;;;;;;;;;23.30;34.80;;;;;;464825;256;1671;-44
2022/12/04 05:08:00;;;;;;;;;;;23.30;34.90;;;;;;464753;256;1367;-44
2022/12/04 05:10:01;;;;;;;;;;;23.30;34.80;;;;;;464835;256;1279;-44
2022/12/04 05:12:02;;;;;;;;;;;23.30;34.80;;;;;;464716;256;1292;-44
2022/12/04 05:14:04;;;;;;;;;;;23.40;34.90;;;;;;464853;256;2175;-44
2022/12/04 05:16:06;;;;;;;;;;;23.40;34.80;;;;;;464785;256;1750;-44
2022/12/04 05:18:07;;;;;;;;;;;23.40;34.90;;;;;;464723;256;1558;-44
2022/12/04 05:20:08;;;;;;;;;;;23.40;34.80;;;;;;465150;256;1258;-44
2022/12/04 05:22:11;;;;;;;;;;;23.40;34.80;;;;;;464774;256;1309;-44
2022/12/04 05:24:11;;;;;;;;;;;23.40;34.80;;;;;;464702;257;1862;-44
2022/12/04 05:26:12;;;;;;;;;;;23.40;34.80;;;;;;464832;256;1444;-44
2022/12/04 05:28:14;;;;;;;;;;;23.40;34.80;;;;;;465057;256;1289;-43
2022/12/04 05:30:15;;;;;;;;;;;23.40;34.80;;;;;;465065;256;1228;-44
2022/12/04 05:32:16;;;;;;;;;;;23.40;34.80;;;;;;464974;256;1368;-44
2022/12/04 05:34:17;;;;;;;;;;;23.30;34.80;;;;;;464702;256;2166;-43
2022/12/04 05:36:19;;;;;;;;;;;23.20;35.00;;;;;;464815;256;1314;-44
2022/12/04 05:38:20;;;;;;;;;;;23.10;35.20;;;;;;464710;256;1213;-44
2022/12/04 05:40:22;;;;;;;;;;;22.90;35.50;;;;;;465142;256;1297;-44
2022/12/04 05:42:23;;;;;;;;;;;22.70;35.80;;;;;;464994;256;1289;-44
2022/12/04 05:44:24;;;;;;;;;;;22.60;36.00;;;;;;465137;256;1271;-44
2022/12/04 05:46:25;;;;;;;;;;;22.50;36.20;;;;;;464688;256;1262;-43
2022/12/04 05:48:27;;;;;;;;;;;22.40;36.40;;;;;;464849;256;1171;-44
2022/12/04 05:50:28;;;;;;;;;;;22.30;36.50;;;;;;464932;256;1352;-44
2022/12/04 05:52:29;;;;;;;;;;;22.20;36.70;;;;;;465045;256;1258;-44
2022/12/04 05:54:31;;;;;;;;;;;22.10;36.90;;;;;;464940;256;2201;-44
2022/12/04 05:56:32;;;;;;;;;;;22.10;36.90;;;;;;464865;256;1231;-44
2022/12/04 05:58:33;;;;;;;;;;;22.00;37.10;;;;;;464752;256;1247;-44
2022/12/04 06:00:35;;;;;;;;;;;22.00;37.20;;;;;;465178;256;1281;-44
2022/12/04 06:02:36;;;;;;;;;;;22.00;37.20;;;;;;464791;256;1219;-44
2022/12/04 06:04:37;;;;;;;;;;;22.00;37.30;;;;;;465121;256;1334;-44
2022/12/04 06:06:39;;;;;;;;;;;21.90;37.30;;;;;;464768;256;1130;-43
2022/12/04 06:08:40;;;;;;;;;;;21.90;37.30;;;;;;464798;256;1201;-44
2022/12/04 06:10:41;;;;;;;;;;;21.90;37.40;;;;;;464741;256;1298;-44
2022/12/04 06:12:43;;;;;;;;;;;21.80;37.40;;;;;;465160;256;1234;-44
2022/12/04 06:14:44;;;;;;;;;;;21.80;37.50;;;;;;465112;256;2179;-43
2022/12/04 06:16:45;;;;;;;;;;;21.80;37.50;;;;;;464764;256;1212;-43
2022/12/04 06:18:47;;;;;;;;;;;21.80;37.60;;;;;;464773;256;1299;-43
2022/12/04 06:20:48;;;;;;;;;;;21.80;37.50;;;;;;464696;256;1314;-44
2022/12/04 06:22:49;;;;;;;;;;;21.70;37.60;;;;;;464886;256;1392;-44
2022/12/04 06:24:51;;;;;;;;;;;21.80;37.60;;;;;;464771;256;1295;-43
2022/12/04 06:26:52;;;;;;;;;;;21.70;37.60;;;;;;464712;256;1190;-44
2022/12/04 06:28:53;;;;;;;;;;;21.70;37.60;;;;;;464775;256;1381;-44
2022/12/04 06:30:55;;;;;;;;;;;21.70;37.70;;;;;;464776;256;1310;-44
2022/12/04 06:32:56;;;;;;;;;;;21.60;37.70;;;;;;464717;256;1345;-44
2022/12/04 06:34:57;;;;;;;;;;;21.70;37.70;;;;;;464892;256;2198;-44
2022/12/04 06:36:59;;;;;;;;;;;21.60;37.80;;;;;;464771;256;1300;-43
2022/12/04 06:39:00;;;;;;;;;;;21.60;37.70;;;;;;464843;256;1387;-44
2022/12/04 06:41:02;;;;;;;;;;;21.60;37.80;;;;;;464724;256;1564;-44
2022/12/04 06:43:03;;;;;;;;;;;21.60;37.80;;;;;;464695;256;1272;-44
2022/12/04 06:45:05;;;;;;;;;;;21.60;37.80;;;;;;464901;256;1363;-43
2022/12/04 06:47:05;;;;;;;;;;;21.50;37.80;;;;;;464586;256;2435;-44
2022/12/04 06:49:07;;;;;;;;;;;21.50;37.80;;;;;;464750;256;1206;-43
2022/12/04 06:51:08;;;;;;;;;;;21.50;37.90;;;;;;464794;256;1264;-44
2022/12/04 06:53:09;;;;;;;;;;;21.50;37.90;;;;;;464698;256;1292;-43
2022/12/04 06:55:11;;;;;;;;;;;21.50;37.90;;;;;;464724;256;2214;-43
2022/12/04 06:57:12;;;;;;;;;;;21.50;37.90;;;;;;464699;256;1285;-43
2022/12/04 06:59:13;;;;;;;;;;;21.50;37.90;;;;;;464751;256;1297;-44
2022/12/04 07:01:15;;;;;;;;;;;21.40;37.80;;;;;;464979;256;1354;-44
2022/12/04 07:03:16;;;;;;;;;;;21.50;37.90;;;;;;464820;256;1314;-44
2022/12/04 07:05:17;;;;;;;;;;;21.50;37.90;;;;;;464706;256;1265;-43
2022/12/04 07:07:18;;;;;;;;;;;21.40;37.90;;;;;;464850;256;1294;-44
2022/12/04 07:09:20;;;;;;;;;;;21.40;38.00;;;;;;464686;256;1300;-44
2022/12/04 07:11:21;;;;;;;;;;;21.40;37.90;;;;;;464695;256;1357;-43
2022/12/04 07:13:23;;;;;;;;;;;21.40;37.90;;;;;;464841;256;1761;-43
2022/12/04 07:15:24;;;;;;;;;;;21.40;38.00;;;;;;464888;256;2175;-44
2022/12/04 07:17:25;;;;;;;;;;;21.40;38.00;;;;;;464645;256;1668;-43
2022/12/04 07:19:26;;;;;;;;;;;21.40;38.00;;;;;;464818;256;1673;-44
2022/12/04 07:21:28;;;;;;;;;;;21.40;38.00;;;;;;465125;256;1203;-44
2022/12/04 07:23:29;;;;;;;;;;;21.40;38.00;;;;;;464707;256;1306;-44
2022/12/04 07:25:30;;;;;;;;;;;21.40;38.00;;;;;;464925;256;2095;-44
2022/12/04 07:27:32;;;;;;;;;;;21.40;38.00;;;;;;465105;256;1299;-43
2022/12/04 07:29:33;;;;;;;;;;;21.40;37.90;;;;;;464757;256;1280;-44
2022/12/04 07:31:34;;;;;;;;;;;21.40;38.00;;;;;;464740;256;1196;-44
2022/12/04 07:33:36;;;;;;;;;;;21.40;38.00;;;;;;464723;256;1250;-43
2022/12/04 07:35:37;;;;;;;;;;;21.30;38.00;;;;;;464862;256;2143;-43
2022/12/04 07:37:38;;;;;;;;;;;21.40;38.10;;;;;;464785;256;1371;-44
2022/12/04 07:39:40;;;;;;;;;;;21.30;38.10;;;;;;464737;256;1288;-44
2022/12/04 07:41:41;;;;;;;;;;;21.30;38.10;;;;;;464722;256;1478;-44
2022/12/04 07:43:42;;;;;;;;;;;21.30;38.10;;;;;;465135;256;1366;-43
2022/12/04 07:45:44;;;;;;;;;;;21.30;38.10;;;;;;464745;256;1376;-44
2022/12/04 07:47:45;;;;;;;;;;;21.30;38.10;;;;;;464744;256;1240;-44
2022/12/04 07:49:46;;;;;;;;;;;21.30;38.10;;;;;;464961;256;1115;-44
2022/12/04 07:51:48;;;;;;;;;;;21.30;38.10;;;;;;465175;256;1066;-44
2022/12/04 07:53:49;;;;;;;;;;;21.40;38.10;;;;;;465167;256;1196;-44
2022/12/04 07:55:50;;;;;;;;;;;21.30;38.10;;;;;;464890;256;2210;-43
2022/12/04 07:57:52;;;;;;;;;;;21.30;38.10;;;;;;464722;256;1203;-43
2022/12/04 07:59:53;;;;;;;;;;;21.30;38.10;;;;;;464806;256;1380;-43
2022/12/04 08:01:54;;;;;;;;;;;21.30;38.10;;;;;;464490;256;1343;-44
2022/12/04 08:03:55;;;;;;;;;;;21.30;38.10;;;;;;464755;256;1765;-43
2022/12/04 08:05:57;;;;;;;;;;;21.30;38.20;;;;;;464617;256;1718;-44
2022/12/04 08:07:58;;;;;;;;;;;21.30;38.20;;;;;;464684;256;1285;-44
2022/12/04 08:09:59;;;;;;;;;;;21.30;38.10;;;;;;464775;256;1661;-43
2022/12/04 08:12:01;;;;;;;;;;;21.20;38.20;;;;;;464565;256;1811;-43
2022/12/04 08:14:02;;;;;;;;;;;21.30;38.10;;;;;;464690;256;1385;-44
2022/12/04 08:16:03;;;;;;;;;;;21.30;38.20;;;;;;464781;256;2167;-43
2022/12/04 08:18:05;;;;;;;;;;;21.30;38.20;;;;;;464690;256;1261;-44
2022/12/04 08:20:06;;;;;;;;;;;21.20;38.20;;;;;;464681;256;1276;-44
2022/12/04 08:22:07;;;;;;;;;;;21.30;38.20;;;;;;464790;256;1458;-44
2022/12/04 08:24:09;;;;;;;;;;;21.30;38.20;;;;;;464734;256;1242;-43
2022/12/04 08:26:10;;;;;;;;;;;21.20;38.20;;;;;;465022;256;1197;-43
2022/12/04 08:28:11;;;;;;;;;;;21.20;38.20;;;;;;464993;256;1212;-43
2022/12/04 08:30:13;;;;;;;;;;;21.20;38.20;;;;;;464689;256;1365;-44
2022/12/04 08:32:14;;;;;;;;;;;21.30;38.20;;;;;;464907;256;1275;-44
2022/12/04 08:34:15;;;;;;;;;;;21.20;38.20;;;;;;464931;256;1389;-43
2022/12/04 08:36:18;;;;;;;;;;;21.20;38.20;;;;;;465143;256;2165;-44
2022/12/04 08:38:18;;;;;;;;;;;21.20;38.20;;;;;;465058;256;2130;-44
2022/12/04 08:40:19;;;;;;;;;;;21.20;38.20;;;;;;464899;256;1641;-43
2022/12/04 08:42:21;;;;;;;;;;;21.20;38.20;;;;;;464706;256;1634;-43
2022/12/04 08:44:22;;;;;;;;;;;21.20;38.30;;;;;;464764;256;1306;-44
2022/12/04 08:46:23;;;;;;;;;;;21.10;38.30;;;;;;464664;256;1214;-43
2022/12/04 08:48:25;;;;;;;;;;;21.20;38.30;;;;;;464655;256;1237;-43
2022/12/04 08:50:26;;;;;;;;;;;21.20;38.30;;;;;;464627;256;1280;-43
2022/12/04 08:52:27;;;;;;;;;;;21.20;38.20;;;;;;464701;256;1300;-44
2022/12/04 08:54:29;;;;;;;;;;;21.10;38.30;;;;;;464898;256;1348;-44
2022/12/04 08:56:30;;;;;;;;;;;21.20;38.30;;;;;;464604;256;2124;-44
2022/12/04 08:58:31;;;;;;;;;;;21.20;38.20;;;;;;464690;256;1288;-44
2022/12/04 09:00:33;;;;;;;;;;;21.20;38.20;;;;;;464662;256;1312;-44
2022/12/04 09:02:34;;;;;;;;;;;21.20;38.20;;;;;;464577;256;1364;-43
2022/12/04 09:04:35;;;;;;;;;;;21.20;38.20;;;;;;464914;256;1315;-44
2022/12/04 09:06:37;;;;;;;;;;;21.20;38.20;;;;;;464869;256;1359;-43
2022/12/04 09:08:38;;;;;;;;;;;21.20;38.30;;;;;;464804;256;1669;-43
2022/12/04 09:10:39;;;;;;;;;;;21.20;38.20;;;;;;464977;256;1282;-44
2022/12/04 09:12:41;;;;;;;;;;;21.20;38.20;;;;;;464735;256;1270;-44
2022/12/04 09:14:42;;;;;;;;;;;21.20;38.20;;;;;;465127;256;2162;-44
2022/12/04 09:16:43;;;;;;;;;;;21.20;38.30;;;;;;464794;256;1816;-44
2022/12/04 09:18:44;;;;;;;;;;;21.20;38.30;;;;;;464842;256;1339;-44
2022/12/04 09:20:46;;;;;;;;;;;21.20;38.20;;;;;;465114;256;1286;-44
2022/12/04 09:22:47;;;;;;;;;;;21.20;38.30;;;;;;464743;256;1265;-44
2022/12/04 09:24:48;;;;;;;;;;;21.10;38.20;;;;;;464716;256;1295;-44
2022/12/04 09:26:50;;;;;;;;;;;21.10;38.20;;;;;;464717;256;1374;-44
2022/12/04 09:28:51;;;;;;;;;;;21.10;38.20;;;;;;465130;256;1216;-44
2022/12/04 09:30:52;;;;;;;;;;;21.10;38.30;;;;;;464741;256;1254;-43
2022/12/04 09:32:54;;;;;;;;;;;21.10;38.30;;;;;;465092;256;1206;-44
2022/12/04 09:34:55;;;;;;;;;;;21.10;38.30;;;;;;465142;256;2217;-44
2022/12/04 09:36:56;;;;;;;;;;;21.10;38.30;;;;;;464715;256;1677;-44
2022/12/04 09:38:58;;;;;;;;;;;21.20;38.30;;;;;;465103;256;1209;-44
2022/12/04 09:40:59;;;;;;;;;;;21.20;38.20;;;;;;464606;256;1662;-43
2022/12/04 09:43:00;;;;;;;;;;;21.20;38.30;;;;;;464818;256;1217;-43
2022/12/04 09:45:02;;;;;;;;;;;21.10;38.30;;;;;;465150;256;1328;-43
2022/12/04 09:47:03;;;;;;;;;;;21.10;38.30;;;;;;464521;256;1677;-44
2022/12/04 09:49:04;;;;;;;;;;;21.10;38.30;;;;;;464983;256;1174;-44
2022/12/04 09:51:06;;;;;;;;;;;21.10;38.30;;;;;;464553;256;1600;-44
2022/12/04 09:53:07;;;;;;;;;;;21.00;38.30;;;;;;464692;256;1224;-44
2022/12/04 09:55:08;;;;;;;;;;;21.10;38.30;;;;;;464740;256;2151;-44
2022/12/04 09:57:10;;;;;;;;;;;21.10;38.30;;;;;;464991;256;1275;-44
2022/12/04 09:59:11;;;;;;;;;;;21.10;38.40;;;;;;464726;256;1528;-44
2022/12/04 10:01:12;;;;;;;;;;;21.00;38.40;;;;;;464914;256;1244;-44
2022/12/04 10:03:14;;;;;;;;;;;21.00;38.40;;;;;;464711;256;1237;-43
2022/12/04 10:05:15;;;;;;;;;;;21.00;38.30;;;;;;464768;256;1405;-44
2022/12/04 10:07:16;;;;;;;;;;;21.00;38.30;;;;;;464837;256;1263;-44
2022/12/04 10:09:18;;;;;;;;;;;21.10;38.30;;;;;;464572;256;1835;-44
2022/12/04 10:11:19;;;;;;;;;;;21.10;38.30;;;;;;464794;256;1456;-43
2022/12/04 10:13:20;;;;;;;;;;;21.10;38.30;;;;;;464603;256;1336;-43
2022/12/04 10:15:22;;;;;;;;;;;21.10;38.30;;;;;;464599;256;2202;-44
2022/12/04 10:17:23;;;;;;;;;;;21.10;38.30;;;;;;464737;256;1739;-43
2022/12/04 10:19:24;;;;;;;;;;;21.10;38.30;;;;;;464851;256;1396;-44
2022/12/04 10:21:25;;;;;;;;;;;21.10;38.30;;;;;;464688;256;1772;-44
2022/12/04 10:23:27;;;;;;;;;;;21.10;38.30;;;;;;464785;256;1310;-43
2022/12/04 10:25:28;;;;;;;;;;;21.00;38.30;;;;;;464710;256;1376;-44
2022/12/04 10:27:29;;;;;;;;;;;21.10;38.30;;;;;;464899;256;1753;-44
2022/12/04 10:29:31;;;;;;;;;;;21.20;38.10;;;;;;464743;256;1648;-44
2022/12/04 10:31:32;;;;;;;;;;;21.40;37.70;;;;;;464941;256;1210;-44
2022/12/04 10:33:33;;;;;;;;;;;21.60;37.50;;;;;;464720;256;1449;-44
2022/12/04 10:35:35;;;;;;;;;;;21.70;37.10;;;;;;464935;256;2166;-44
2022/12/04 10:37:36;;;;;;;;;;;21.80;36.90;;;;;;464964;256;1384;-44
2022/12/04 10:39:37;;;;;;;;;;;21.90;36.80;;;;;;464911;256;1286;-44
2022/12/04 10:41:39;;;;;;;;;;;22.00;36.70;;;;;;464686;256;1312;-44
2022/12/04 10:43:40;;;;;;;;;;;22.00;36.50;;;;;;464805;256;1250;-44
2022/12/04 10:45:41;;;;;;;;;;;22.10;36.40;;;;;;464751;256;1585;-44
2022/12/04 10:47:43;;;;;;;;;;;22.20;36.40;;;;;;464676;256;1262;-44
2022/12/04 10:49:44;;;;;;;;;;;22.20;36.30;;;;;;464786;256;1227;-44
2022/12/04 10:51:45;;;;;;;;;;;22.30;36.20;;;;;;464738;256;1339;-43
2022/12/04 10:53:48;;;;;;;;;;;22.30;36.10;;;;;;465017;256;1219;-44
2022/12/04 10:55:48;;;;;;;;;;;22.30;36.10;;;;;;464944;256;2218;-44
2022/12/04 10:57:50;;;;;;;;;;;22.40;36.10;;;;;;464721;256;1261;-44
2022/12/04 10:59:51;;;;;;;;;;;22.40;36.00;;;;;;465140;256;1668;-44
2022/12/04 11:01:52;;;;;;;;;;;22.40;36.00;;;;;;464701;256;1319;-44
2022/12/04 11:03:54;;;;;;;;;;;22.50;36.00;;;;;;465001;256;1618;-44
2022/12/04 11:05:55;;;;;;;;;;;22.50;35.90;;;;;;464834;256;1235;-44
2022/12/04 11:07:56;;;;;;;;;;;22.50;35.80;;;;;;464802;256;1653;-43
2022/12/04 11:09:58;;;;;;;;;;;22.50;35.80;;;;;;464645;256;1972;-44
2022/12/04 11:11:59;;;;;;;;;;;22.60;35.80;;;;;;464969;256;1254;-43
2022/12/04 11:14:00;;;;;;;;;;;22.60;35.80;;;;;;464711;256;1701;-44
2022/12/04 11:16:01;;;;;;;;;;;22.60;35.70;;;;;;464585;256;2206;-44
2022/12/04 11:18:03;;;;;;;;;;;22.60;35.70;;;;;;464605;256;1921;-44
2022/12/04 11:20:04;;;;;;;;;;;22.60;35.60;;;;;;464655;256;1939;-44
2022/12/04 11:22:05;;;;;;;;;;;22.70;35.60;;;;;;464474;256;1664;-44
2022/12/04 11:24:07;;;;;;;;;;;22.70;35.60;;;;;;465094;256;1367;-44
2022/12/04 11:26:08;;;;;;;;;;;22.70;35.60;;;;;;464754;256;1656;-44
2022/12/04 11:28:09;;;;;;;;;;;22.70;35.50;;;;;;464677;256;1227;-43
2022/12/04 11:30:11;;;;;;;;;;;22.80;35.50;;;;;;465066;256;1271;-44
2022/12/04 11:32:12;;;;;;;;;;;22.80;35.50;;;;;;464443;256;1353;-44
2022/12/04 11:34:13;;;;;;;;;;;22.80;35.50;;;;;;464666;256;1268;-44
2022/12/04 11:36:15;;;;;;;;;;;22.80;35.50;;;;;;465048;256;2162;-44
2022/12/04 11:38:16;;;;;;;;;;;22.80;35.40;;;;;;464735;256;1295;-44
2022/12/04 11:40:17;;;;;;;;;;;22.80;35.40;;;;;;464663;256;1205;-44
2022/12/04 11:42:19;;;;;;;;;;;22.90;35.40;;;;;;464807;256;1331;-44
2022/12/04 11:44:20;;;;;;;;;;;22.90;35.40;;;;;;464873;256;1391;-43
2022/12/04 11:46:21;;;;;;;;;;;22.90;35.30;;;;;;464634;256;1210;-44
2022/12/04 11:48:23;;;;;;;;;;;22.90;35.30;;;;;;464755;256;1319;-43
2022/12/04 11:50:24;;;;;;;;;;;22.90;35.30;;;;;;464761;256;1121;-44
2022/12/04 11:52:25;;;;;;;;;;;22.90;35.30;;;;;;465015;256;1104;-43
2022/12/04 11:54:27;;;;;;;;;;;22.90;35.30;;;;;;464864;256;1233;-44
2022/12/04 11:56:28;;;;;;;;;;;23.00;35.30;;;;;;464742;256;2230;-44
2022/12/04 11:58:29;;;;;;;;;;;23.00;35.20;;;;;;464781;256;1091;-44
2022/12/04 12:00:31;;;;;;;;;;;23.00;35.20;;;;;;464746;256;1186;-44
2022/12/04 12:02:32;;;;;;;;;;;23.00;35.20;;;;;;464813;256;1242;-44
2022/12/04 12:04:34;;;;;;;;;;;23.00;35.20;;;;;;465131;256;1215;-44
2022/12/04 12:06:35;;;;;;;;;;;23.00;35.20;;;;;;465122;256;1246;-44
2022/12/04 12:08:36;;;;;;;;;;;23.00;35.20;;;;;;465077;256;1219;-43